sensor_id;sensor_type;location;lat;lon;timestamp;pressure;altitude;pressure_sealevel;temperature;humidity
12203;BME280;6164;42.178;24.622;2023-01-30T00:01:01;100054.28;;;3.52;100.00
12203;BME280;6164;42.178;24.622;2023-01-30T00:03:28;100061.28;;;3.51;100.00
12203;BME280;6164;42.178;24.622;2023-01-30T00:05:54;100054.66;;;3.47;100.00
12203;BME280;6164;42.178;24.622;2023-01-30T00:08:21;100050.84;;;3.51;100.00
12203;BME280;6164;42.178;24.622;2023-01-30T00:10:48;100047.75;;;3.46;100.00
12203;BME280;6164;42.178;24.622;2023-01-30T00:13:16;100050.34;;;3.46;100.00
12203;BME280;6164;42.178;24.622;2023-01-30T00:15:42;100048.19;;;3.40;100.00
12203;BME280;6164;42.178;24.622;2023-01-30T00:18:09;100044.19;;;3.47;100.00
12203;BME280;6164;42.178;24.622;2023-01-30T00:20:35;100054.78;;;3.57;100.00
12203;BME280;6164;42.178;24.622;2023-01-30T00:23:02;100053.22;;;3.54;100.00
12203;BME280;6164;42.178;24.622;2023-01-30T00:25:29;100047.41;;;3.51;100.00
12203;BME280;6164;42.178;24.622;2023-01-30T00:27:57;100053.19;;;3.43;100.00
12203;BME280;6164;42.178;24.622;2023-01-30T00:30:25;100049.59;;;3.33;100.00
12203;BME280;6164;42.178;24.622;2023-01-30T00:32:52;100048.34;;;3.26;100.00
12203;BME280;6164;42.178;24.622;2023-01-30T00:35:19;100042.09;;;3.29;100.00
12203;BME280;6164;42.178;24.622;2023-01-30T00:37:45;100043.81;;;3.17;100.00
12203;BME280;6164;42.178;24.622;2023-01-30T00:40:12;100041.09;;;3.19;100.00
12203;BME280;6164;42.178;24.622;2023-01-30T00:42:38;100044.09;;;3.25;100.00
12203;BME280;6164;42.178;24.622;2023-01-30T00:45:22;100042.94;;;3.29;100.00
12203;BME280;6164;42.178;24.622;2023-01-30T00:48:07;100040.75;;;3.23;100.00
12203;BME280;6164;42.178;24.622;2023-01-30T00:50:34;100040.75;;;3.23;100.00
12203;BME280;6164;42.178;24.622;2023-01-30T00:53:08;100037.22;;;3.24;100.00
12203;BME280;6164;42.178;24.622;2023-01-30T00:55:34;100039.47;;;3.29;100.00
12203;BME280;6164;42.178;24.622;2023-01-30T00:58:01;100045.09;;;3.35;100.00
12203;BME280;6164;42.178;24.622;2023-01-30T01:00:27;100041.22;;;3.41;100.00
12203;BME280;6164;42.178;24.622;2023-01-30T01:02:54;100045.47;;;3.42;100.00
12203;BME280;6164;42.178;24.622;2023-01-30T01:05:22;100040.47;;;3.39;100.00
12203;BME280;6164;42.178;24.622;2023-01-30T01:07:48;100041.78;;;3.44;100.00
12203;BME280;6164;42.178;24.622;2023-01-30T01:10:15;100031.94;;;3.37;100.00
12203;BME280;6164;42.178;24.622;2023-01-30T01:12:41;100026.97;;;3.45;100.00
12203;BME280;6164;42.178;24.622;2023-01-30T01:15:09;100023.22;;;3.49;100.00
12203;BME280;6164;42.178;24.622;2023-01-30T01:17:36;100028.09;;;3.53;100.00
12203;BME280;6164;42.178;24.622;2023-01-30T01:20:02;100029.25;;;3.49;100.00
12203;BME280;6164;42.178;24.622;2023-01-30T01:22:30;100018.91;;;3.48;100.00
12203;BME280;6164;42.178;24.622;2023-01-30T01:24:57;100016.09;;;3.51;100.00
12203;BME280;6164;42.178;24.622;2023-01-30T01:27:23;100017.75;;;3.52;100.00
12203;BME280;6164;42.178;24.622;2023-01-30T01:29:50;100011.66;;;3.40;100.00
12203;BME280;6164;42.178;24.622;2023-01-30T01:32:16;100014.78;;;3.45;100.00
12203;BME280;6164;42.178;24.622;2023-01-30T01:34:43;100011.94;;;3.48;100.00
12203;BME280;6164;42.178;24.622;2023-01-30T01:37:09;100018.78;;;3.49;100.00
12203;BME280;6164;42.178;24.622;2023-01-30T01:39:37;100020.25;;;3.53;100.00
12203;BME280;6164;42.178;24.622;2023-01-30T01:42:22;100011.56;;;3.53;100.00
12203;BME280;6164;42.178;24.622;2023-01-30T01:45:03;100015.88;;;3.54;100.00
12203;BME280;6164;42.178;24.622;2023-01-30T01:47:37;100007.19;;;3.53;100.00
12203;BME280;6164;42.178;24.622;2023-01-30T01:50:05;100000.53;;;3.49;100.00
12203;BME280;6164;42.178;24.622;2023-01-30T01:52:35;99997.00;;;3.50;100.00
12203;BME280;6164;42.178;24.622;2023-01-30T01:55:04;100001.25;;;3.51;100.00
12203;BME280;6164;42.178;24.622;2023-01-30T01:57:32;100003.88;;;3.51;100.00
12203;BME280;6164;42.178;24.622;2023-01-30T02:00:00;99996.16;;;3.50;100.00
12203;BME280;6164;42.178;24.622;2023-01-30T02:02:29;99999.94;;;3.46;100.00
12203;BME280;6164;42.178;24.622;2023-01-30T02:04:56;99991.88;;;3.49;100.00
12203;BME280;6164;42.178;24.622;2023-01-30T02:07:28;99998.16;;;3.46;100.00
12203;BME280;6164;42.178;24.622;2023-01-30T02:09:55;99990.69;;;3.53;100.00
12203;BME280;6164;42.178;24.622;2023-01-30T02:12:23;99993.28;;;3.42;100.00
12203;BME280;6164;42.178;24.622;2023-01-30T02:14:50;99990.78;;;3.40;100.00
12203;BME280;6164;42.178;24.622;2023-01-30T02:17:18;99992.00;;;3.47;100.00
12203;BME280;6164;42.178;24.622;2023-01-30T02:19:46;99992.44;;;3.41;100.00
12203;BME280;6164;42.178;24.622;2023-01-30T02:22:17;99988.28;;;3.39;100.00
12203;BME280;6164;42.178;24.622;2023-01-30T02:24:54;99988.97;;;3.30;100.00
12203;BME280;6164;42.178;24.622;2023-01-30T02:27:37;99980.97;;;3.20;100.00
12203;BME280;6164;42.178;24.622;2023-01-30T02:32:55;99979.88;;;3.12;100.00
12203;BME280;6164;42.178;24.622;2023-01-30T02:35:28;99982.94;;;3.06;100.00
12203;BME280;6164;42.178;24.622;2023-01-30T02:38:02;99979.81;;;3.01;100.00
12203;BME280;6164;42.178;24.622;2023-01-30T02:40:34;99982.44;;;3.01;100.00
12203;BME280;6164;42.178;24.622;2023-01-30T02:43:05;99979.94;;;2.99;100.00
12203;BME280;6164;42.178;24.622;2023-01-30T02:45:35;99978.97;;;3.00;100.00
12203;BME280;6164;42.178;24.622;2023-01-30T02:48:08;99978.69;;;3.05;100.00
12203;BME280;6164;42.178;24.622;2023-01-30T02:50:37;99978.94;;;3.13;100.00
12203;BME280;6164;42.178;24.622;2023-01-30T02:53:05;99984.03;;;3.14;100.00
12203;BME280;6164;42.178;24.622;2023-01-30T02:55:32;99974.72;;;3.23;100.00
12203;BME280;6164;42.178;24.622;2023-01-30T02:58:01;99982.44;;;3.24;100.00
12203;BME280;6164;42.178;24.622;2023-01-30T03:00:31;99976.94;;;3.16;100.00
12203;BME280;6164;42.178;24.622;2023-01-30T03:03:07;99973.38;;;3.17;100.00
12203;BME280;6164;42.178;24.622;2023-01-30T03:08:22;99965.78;;;3.14;100.00
12203;BME280;6164;42.178;24.622;2023-01-30T03:10:52;99964.78;;;3.28;100.00
12203;BME280;6164;42.178;24.622;2023-01-30T03:13:23;99964.06;;;3.26;100.00
12203;BME280;6164;42.178;24.622;2023-01-30T03:15:52;99957.66;;;3.30;100.00
12203;BME280;6164;42.178;24.622;2023-01-30T03:18:22;99957.75;;;3.28;100.00
12203;BME280;6164;42.178;24.622;2023-01-30T03:20:48;99959.09;;;3.34;100.00
12203;BME280;6164;42.178;24.622;2023-01-30T03:23:15;99961.34;;;3.38;100.00
12203;BME280;6164;42.178;24.622;2023-01-30T03:25:42;99951.16;;;3.35;100.00
12203;BME280;6164;42.178;24.622;2023-01-30T03:28:09;99954.59;;;3.36;100.00
12203;BME280;6164;42.178;24.622;2023-01-30T03:30:36;99956.84;;;3.40;100.00
12203;BME280;6164;42.178;24.622;2023-01-30T03:33:02;99946.66;;;3.37;100.00
12203;BME280;6164;42.178;24.622;2023-01-30T03:35:30;99949.91;;;3.17;100.00
12203;BME280;6164;42.178;24.622;2023-01-30T03:37:57;99950.28;;;3.24;100.00
12203;BME280;6164;42.178;24.622;2023-01-30T03:40:23;99955.13;;;3.17;100.00
12203;BME280;6164;42.178;24.622;2023-01-30T03:42:50;99956.25;;;3.02;100.00
12203;BME280;6164;42.178;24.622;2023-01-30T03:45:16;99958.81;;;2.91;100.00
12203;BME280;6164;42.178;24.622;2023-01-30T03:47:43;99957.63;;;2.95;100.00
12203;BME280;6164;42.178;24.622;2023-01-30T03:50:09;99961.56;;;3.01;100.00
12203;BME280;6164;42.178;24.622;2023-01-30T03:52:37;99950.97;;;2.91;100.00
12203;BME280;6164;42.178;24.622;2023-01-30T03:55:04;99959.81;;;3.01;100.00
12203;BME280;6164;42.178;24.622;2023-01-30T03:57:30;99959.47;;;3.06;100.00
12203;BME280;6164;42.178;24.622;2023-01-30T03:59:57;99954.41;;;2.92;100.00
12203;BME280;6164;42.178;24.622;2023-01-30T04:02:23;99956.97;;;3.04;100.00
12203;BME280;6164;42.178;24.622;2023-01-30T04:04:50;99951.59;;;2.95;100.00
12203;BME280;6164;42.178;24.622;2023-01-30T04:07:16;99948.59;;;2.88;100.00
12203;BME280;6164;42.178;24.622;2023-01-30T04:09:44;99942.56;;;2.88;100.00
12203;BME280;6164;42.178;24.622;2023-01-30T04:12:11;99941.94;;;2.84;100.00
12203;BME280;6164;42.178;24.622;2023-01-30T04:14:37;99944.78;;;2.81;100.00
12203;BME280;6164;42.178;24.622;2023-01-30T04:17:04;99939.06;;;2.76;100.00
12203;BME280;6164;42.178;24.622;2023-01-30T04:19:30;99938.78;;;2.68;100.00
12203;BME280;6164;42.178;24.622;2023-01-30T04:21:57;99939.59;;;2.68;100.00
12203;BME280;6164;42.178;24.622;2023-01-30T04:24:23;99926.09;;;2.63;100.00
12203;BME280;6164;42.178;24.622;2023-01-30T04:26:51;99935.00;;;2.72;100.00
12203;BME280;6164;42.178;24.622;2023-01-30T04:29:18;99934.94;;;2.61;100.00
12203;BME280;6164;42.178;24.622;2023-01-30T04:31:44;99929.63;;;2.62;100.00
12203;BME280;6164;42.178;24.622;2023-01-30T04:34:11;99930.47;;;2.50;100.00
12203;BME280;6164;42.178;24.622;2023-01-30T04:36:37;99936.66;;;2.49;100.00
12203;BME280;6164;42.178;24.622;2023-01-30T04:39:04;99928.31;;;2.44;100.00
12203;BME280;6164;42.178;24.622;2023-01-30T04:41:30;99945.84;;;2.42;100.00
12203;BME280;6164;42.178;24.622;2023-01-30T04:43:58;99939.31;;;2.37;100.00
12203;BME280;6164;42.178;24.622;2023-01-30T04:46:24;99931.25;;;2.40;100.00
12203;BME280;6164;42.178;24.622;2023-01-30T04:48:51;99938.34;;;2.38;100.00
12203;BME280;6164;42.178;24.622;2023-01-30T04:51:17;99939.06;;;2.40;100.00
12203;BME280;6164;42.178;24.622;2023-01-30T04:53:44;99939.81;;;2.42;100.00
12203;BME280;6164;42.178;24.622;2023-01-30T04:56:10;99942.09;;;2.46;100.00
12203;BME280;6164;42.178;24.622;2023-01-30T04:58:37;99941.13;;;2.47;100.00
12203;BME280;6164;42.178;24.622;2023-01-30T05:01:15;99940.50;;;2.44;100.00
12203;BME280;6164;42.178;24.622;2023-01-30T05:03:44;99933.53;;;2.44;100.00
12203;BME280;6164;42.178;24.622;2023-01-30T05:06:11;99934.59;;;2.42;100.00
12203;BME280;6164;42.178;24.622;2023-01-30T05:08:37;99939.38;;;2.48;100.00
12203;BME280;6164;42.178;24.622;2023-01-30T05:11:04;99941.34;;;2.44;100.00
12203;BME280;6164;42.178;24.622;2023-01-30T05:13:30;99934.72;;;2.40;100.00
12203;BME280;6164;42.178;24.622;2023-01-30T05:15:57;99939.19;;;2.38;100.00
12203;BME280;6164;42.178;24.622;2023-01-30T05:18:25;99935.84;;;2.36;100.00
12203;BME280;6164;42.178;24.622;2023-01-30T05:20:51;99942.94;;;2.34;100.00
12203;BME280;6164;42.178;24.622;2023-01-30T05:23:17;99941.78;;;2.38;100.00
12203;BME280;6164;42.178;24.622;2023-01-30T05:25:44;99945.13;;;2.40;100.00
12203;BME280;6164;42.178;24.622;2023-01-30T05:28:10;99941.78;;;2.38;100.00
12203;BME280;6164;42.178;24.622;2023-01-30T05:30:37;99943.34;;;2.41;100.00
12203;BME280;6164;42.178;24.622;2023-01-30T05:33:03;99940.84;;;2.39;100.00
12203;BME280;6164;42.178;24.622;2023-01-30T05:35:31;99946.03;;;2.52;100.00
12203;BME280;6164;42.178;24.622;2023-01-30T05:37:58;99944.34;;;2.51;100.00
12203;BME280;6164;42.178;24.622;2023-01-30T05:40:26;99942.59;;;2.51;100.00
12203;BME280;6164;42.178;24.622;2023-01-30T05:42:53;99946.84;;;2.52;100.00
12203;BME280;6164;42.178;24.622;2023-01-30T05:45:19;99950.63;;;2.48;100.00
12203;BME280;6164;42.178;24.622;2023-01-30T05:47:49;99944.13;;;2.54;100.00
12203;BME280;6164;42.178;24.622;2023-01-30T05:50:15;99948.69;;;2.63;100.00
12203;BME280;6164;42.178;24.622;2023-01-30T05:52:43;99943.16;;;2.67;100.00
12203;BME280;6164;42.178;24.622;2023-01-30T05:55:10;99943.31;;;2.77;100.00
12203;BME280;6164;42.178;24.622;2023-01-30T05:57:36;99945.81;;;2.79;100.00
12203;BME280;6164;42.178;24.622;2023-01-30T06:00:03;99945.00;;;2.78;100.00
12203;BME280;6164;42.178;24.622;2023-01-30T06:02:29;99946.66;;;2.79;100.00
12203;BME280;6164;42.178;24.622;2023-01-30T06:04:56;99949.75;;;2.84;100.00
12203;BME280;6164;42.178;24.622;2023-01-30T06:07:22;99945.59;;;2.82;100.00
12203;BME280;6164;42.178;24.622;2023-01-30T06:09:50;99951.22;;;2.88;100.00
12203;BME280;6164;42.178;24.622;2023-01-30T06:12:17;99954.75;;;2.87;100.00
12203;BME280;6164;42.178;24.622;2023-01-30T06:14:43;99960.81;;;2.88;100.00
12203;BME280;6164;42.178;24.622;2023-01-30T06:17:10;99952.13;;;2.87;100.00
12203;BME280;6164;42.178;24.622;2023-01-30T06:19:36;99956.97;;;2.81;100.00
12203;BME280;6164;42.178;24.622;2023-01-30T06:22:03;99954.59;;;2.78;100.00
12203;BME280;6164;42.178;24.622;2023-01-30T06:24:29;99956.84;;;2.82;100.00
12203;BME280;6164;42.178;24.622;2023-01-30T06:26:58;99955.59;;;2.88;100.00
12203;BME280;6164;42.178;24.622;2023-01-30T06:29:25;99954.41;;;2.92;100.00
12203;BME280;6164;42.178;24.622;2023-01-30T06:31:51;99959.47;;;2.82;100.00
12203;BME280;6164;42.178;24.622;2023-01-30T06:34:17;99958.31;;;2.86;100.00
12203;BME280;6164;42.178;24.622;2023-01-30T06:36:44;99966.06;;;2.99;100.00
12203;BME280;6164;42.178;24.622;2023-01-30T06:39:10;99961.41;;;2.91;100.00
12203;BME280;6164;42.178;24.622;2023-01-30T06:41:37;99971.28;;;2.99;100.00
12203;BME280;6164;42.178;24.622;2023-01-30T06:44:05;99966.41;;;2.94;100.00
12203;BME280;6164;42.178;24.622;2023-01-30T06:46:31;99962.91;;;3.06;100.00
12203;BME280;6164;42.178;24.622;2023-01-30T06:48:58;99963.59;;;3.08;100.00
12203;BME280;6164;42.178;24.622;2023-01-30T06:51:24;99972.63;;;3.04;100.00
12203;BME280;6164;42.178;24.622;2023-01-30T06:53:51;99969.22;;;3.15;100.00
12203;BME280;6164;42.178;24.622;2023-01-30T06:56:18;99972.88;;;3.12;100.00
12203;BME280;6164;42.178;24.622;2023-01-30T06:58:48;99967.78;;;3.11;100.00
12203;BME280;6164;42.178;24.622;2023-01-30T07:01:16;99973.84;;;3.11;100.00
12203;BME280;6164;42.178;24.622;2023-01-30T07:03:43;99975.13;;;3.06;100.00
12203;BME280;6164;42.178;24.622;2023-01-30T07:06:09;99970.75;;;3.06;100.00
12203;BME280;6164;42.178;24.622;2023-01-30T07:08:36;99977.16;;;3.13;100.00
12203;BME280;6164;42.178;24.622;2023-01-30T07:11:03;99974.28;;;3.05;100.00
12203;BME280;6164;42.178;24.622;2023-01-30T07:13:30;99975.59;;;3.11;100.00
12203;BME280;6164;42.178;24.622;2023-01-30T07:15:56;99971.66;;;3.05;100.00
12203;BME280;6164;42.178;24.622;2023-01-30T07:18:24;99968.44;;;3.02;100.00
12203;BME280;6164;42.178;24.622;2023-01-30T07:20:50;99971.94;;;3.13;100.00
12203;BME280;6164;42.178;24.622;2023-01-30T07:23:17;99972.31;;;3.20;100.00
12203;BME280;6164;42.178;24.622;2023-01-30T07:25:43;99977.75;;;3.17;100.00
12203;BME280;6164;42.178;24.622;2023-01-30T07:28:10;99971.38;;;3.21;100.00
12203;BME280;6164;42.178;24.622;2023-01-30T07:30:36;99977.91;;;3.26;100.00
12203;BME280;6164;42.178;24.622;2023-01-30T07:33:03;99974.00;;;3.21;100.00
12203;BME280;6164;42.178;24.622;2023-01-30T07:35:32;99975.25;;;3.15;100.00
12203;BME280;6164;42.178;24.622;2023-01-30T07:37:59;99972.31;;;3.20;100.00
12203;BME280;6164;42.178;24.622;2023-01-30T07:40:25;99976.25;;;3.25;100.00
12203;BME280;6164;42.178;24.622;2023-01-30T07:42:55;99979.81;;;3.24;100.00
12203;BME280;6164;42.178;24.622;2023-01-30T07:45:22;99972.78;;;3.14;100.00
12203;BME280;6164;42.178;24.622;2023-01-30T07:47:48;99970.66;;;3.19;100.00
12203;BME280;6164;42.178;24.622;2023-01-30T07:50:15;99975.41;;;3.25;100.00
12203;BME280;6164;42.178;24.622;2023-01-30T07:52:43;99968.50;;;3.13;100.00
12203;BME280;6164;42.178;24.622;2023-01-30T07:55:10;99974.09;;;3.19;100.00
12203;BME280;6164;42.178;24.622;2023-01-30T07:57:36;99970.53;;;3.20;100.00
12203;BME280;6164;42.178;24.622;2023-01-30T08:00:03;99963.81;;;3.29;100.00
12203;BME280;6164;42.178;24.622;2023-01-30T08:02:34;99960.19;;;3.42;100.00
12203;BME280;6164;42.178;24.622;2023-01-30T08:05:01;99958.41;;;3.43;100.00
12203;BME280;6164;42.178;24.622;2023-01-30T08:07:27;99961.66;;;3.57;100.00
12203;BME280;6164;42.178;24.622;2023-01-30T08:09:55;99966.66;;;3.60;100.00
12203;BME280;6164;42.178;24.622;2023-01-30T08:12:21;99961.31;;;3.62;100.00
12203;BME280;6164;42.178;24.622;2023-01-30T08:14:48;99956.19;;;3.60;100.00
12203;BME280;6164;42.178;24.622;2023-01-30T08:17:14;99962.97;;;3.63;100.00
12203;BME280;6164;42.178;24.622;2023-01-30T08:19:41;99961.31;;;3.73;100.00
12203;BME280;6164;42.178;24.622;2023-01-30T08:22:07;99956.69;;;3.65;100.00
12203;BME280;6164;42.178;24.622;2023-01-30T08:24:34;99951.34;;;3.67;100.00
12203;BME280;6164;42.178;24.622;2023-01-30T08:27:02;99953.22;;;3.54;100.00
12203;BME280;6164;42.178;24.622;2023-01-30T08:29:28;99959.50;;;3.51;100.00
12203;BME280;6164;42.178;24.622;2023-01-30T08:31:55;99953.34;;;3.52;100.00
12203;BME280;6164;42.178;24.622;2023-01-30T08:34:22;99955.72;;;3.55;100.00
12203;BME280;6164;42.178;24.622;2023-01-30T08:36:49;99946.81;;;3.58;100.00
12203;BME280;6164;42.178;24.622;2023-01-30T08:39:15;99947.53;;;3.60;100.00
12203;BME280;6164;42.178;24.622;2023-01-30T08:41:42;99949.53;;;3.67;100.00
12203;BME280;6164;42.178;24.622;2023-01-30T08:44:09;99943.88;;;3.73;100.00
12203;BME280;6164;42.178;24.622;2023-01-30T08:46:36;99953.34;;;3.63;100.00
12203;BME280;6164;42.178;24.622;2023-01-30T08:49:03;99949.91;;;3.63;100.00
12203;BME280;6164;42.178;24.622;2023-01-30T08:51:29;99942.91;;;3.63;100.00
12203;BME280;6164;42.178;24.622;2023-01-30T08:53:56;99947.41;;;3.61;100.00
12203;BME280;6164;42.178;24.622;2023-01-30T08:56:22;99945.53;;;3.63;100.00
12203;BME280;6164;42.178;24.622;2023-01-30T08:58:49;99939.03;;;3.69;100.00
12203;BME280;6164;42.178;24.622;2023-01-30T09:01:17;99938.41;;;3.65;100.00
12203;BME280;6164;42.178;24.622;2023-01-30T09:03:43;99936.06;;;3.73;100.00
12203;BME280;6164;42.178;24.622;2023-01-30T09:06:10;99933.31;;;3.75;100.00
12203;BME280;6164;42.178;24.622;2023-01-30T09:08:36;99934.03;;;3.77;100.00
12203;BME280;6164;42.178;24.622;2023-01-30T09:11:04;99925.72;;;3.83;100.00
12203;BME280;6164;42.178;24.622;2023-01-30T09:13:31;99925.59;;;3.95;100.00
12203;BME280;6164;42.178;24.622;2023-01-30T09:15:57;99923.13;;;4.05;100.00
12203;BME280;6164;42.178;24.622;2023-01-30T09:18:25;99926.78;;;4.25;100.00
12203;BME280;6164;42.178;24.622;2023-01-30T09:20:52;99918.84;;;4.15;100.00
12203;BME280;6164;42.178;24.622;2023-01-30T09:23:18;99911.34;;;4.11;100.00
12203;BME280;6164;42.178;24.622;2023-01-30T09:25:45;99912.78;;;4.15;100.00
12203;BME280;6164;42.178;24.622;2023-01-30T09:28:11;99910.53;;;4.21;100.00
12203;BME280;6164;42.178;24.622;2023-01-30T09:30:38;99905.78;;;3.93;100.00
12203;BME280;6164;42.178;24.622;2023-01-30T09:33:04;99910.53;;;3.99;100.00
12203;BME280;6164;42.178;24.622;2023-01-30T09:35:32;99902.13;;;4.07;100.00
12203;BME280;6164;42.178;24.622;2023-01-30T09:37:59;99888.34;;;3.93;100.00
12203;BME280;6164;42.178;24.622;2023-01-30T09:40:26;99889.06;;;4.07;100.00
12203;BME280;6164;42.178;24.622;2023-01-30T09:43:00;99876.59;;;4.10;100.00
12203;BME280;6164;42.178;24.622;2023-01-30T09:45:36;99874.19;;;4.18;100.00
12203;BME280;6164;42.178;24.622;2023-01-30T09:48:06;99877.16;;;4.25;100.00
12203;BME280;6164;42.178;24.622;2023-01-30T09:50:44;99872.22;;;4.42;100.00
12203;BME280;6164;42.178;24.622;2023-01-30T09:53:19;99867.97;;;4.41;100.00
12203;BME280;6164;42.178;24.622;2023-01-30T09:55:48;99870.25;;;4.35;100.00
12203;BME280;6164;42.178;24.622;2023-01-30T09:58:15;99870.19;;;4.46;100.00
12203;BME280;6164;42.178;24.622;2023-01-30T10:00:43;99860.72;;;4.45;100.00
12203;BME280;6164;42.178;24.622;2023-01-30T10:03:12;99854.41;;;4.47;100.00
12203;BME280;6164;42.178;24.622;2023-01-30T10:05:42;99846.72;;;4.35;100.00
12203;BME280;6164;42.178;24.622;2023-01-30T10:08:16;99846.69;;;4.46;100.00
12203;BME280;6164;42.178;24.622;2023-01-30T10:10:46;99838.13;;;4.44;100.00
12203;BME280;6164;42.178;24.622;2023-01-30T10:13:25;99837.66;;;4.39;100.00
12203;BME280;6164;42.178;24.622;2023-01-30T10:15:57;99829.50;;;4.32;100.00
12203;BME280;6164;42.178;24.622;2023-01-30T10:18:33;99814.97;;;4.39;100.00
12203;BME280;6164;42.178;24.622;2023-01-30T10:21:10;99814.53;;;4.55;100.00
12203;BME280;6164;42.178;24.622;2023-01-30T10:23:48;99818.84;;;4.56;100.00
12203;BME280;6164;42.178;24.622;2023-01-30T10:26:18;99809.38;;;4.44;100.00
12203;BME280;6164;42.178;24.622;2023-01-30T10:28:48;99802.00;;;4.49;100.00
12203;BME280;6164;42.178;24.622;2023-01-30T10:31:17;99796.56;;;4.41;100.00
12203;BME280;6164;42.178;24.622;2023-01-30T10:33:47;99788.97;;;4.38;100.00
12203;BME280;6164;42.178;24.622;2023-01-30T10:36:19;99783.34;;;4.42;100.00
12203;BME280;6164;42.178;24.622;2023-01-30T10:38:49;99783.19;;;4.55;100.00
12203;BME280;6164;42.178;24.622;2023-01-30T10:41:18;99771.66;;;4.57;100.00
12203;BME280;6164;42.178;24.622;2023-01-30T10:43:50;99781.84;;;4.60;100.00
12203;BME280;6164;42.178;24.622;2023-01-30T10:46:27;99764.13;;;4.64;100.00
12203;BME280;6164;42.178;24.622;2023-01-30T10:48:57;99756.47;;;4.72;100.00
12203;BME280;6164;42.178;24.622;2023-01-30T10:51:35;99753.88;;;4.72;100.00
12203;BME280;6164;42.178;24.622;2023-01-30T10:54:07;99729.03;;;4.66;100.00
12203;BME280;6164;42.178;24.622;2023-01-30T10:56:38;99736.13;;;4.75;100.00
12203;BME280;6164;42.178;24.622;2023-01-30T10:59:13;99729.34;;;4.73;100.00
12203;BME280;6164;42.178;24.622;2023-01-30T11:01:42;99723.25;;;4.83;100.00
12203;BME280;6164;42.178;24.622;2023-01-30T11:04:13;99719.03;;;4.71;100.00
12203;BME280;6164;42.178;24.622;2023-01-30T11:06:45;99735.00;;;4.48;91.71
12203;BME280;6164;42.178;24.622;2023-01-30T11:09:12;99752.25;;;4.39;86.14
12203;BME280;6164;42.178;24.622;2023-01-30T11:11:41;99753.09;;;4.40;83.90
12203;BME280;6164;42.178;24.622;2023-01-30T11:14:12;99746.38;;;4.47;85.05
12203;BME280;6164;42.178;24.622;2023-01-30T11:16:42;99742.97;;;4.46;84.42
12203;BME280;6164;42.178;24.622;2023-01-30T11:19:09;99751.91;;;4.33;81.25
12203;BME280;6164;42.178;24.622;2023-01-30T11:21:35;99741.78;;;4.39;82.33
12203;BME280;6164;42.178;24.622;2023-01-30T11:24:10;99727.28;;;4.46;83.27
12203;BME280;6164;42.178;24.622;2023-01-30T11:26:37;99717.59;;;4.58;84.01
12203;BME280;6164;42.178;24.622;2023-01-30T11:29:13;99703.94;;;4.54;83.58
12203;BME280;6164;42.178;24.622;2023-01-30T11:31:40;99699.72;;;4.63;83.83
12203;BME280;6164;42.178;24.622;2023-01-30T11:34:11;99709.16;;;4.54;80.44
12203;BME280;6164;42.178;24.622;2023-01-30T11:36:38;99725.13;;;4.51;78.06
12203;BME280;6164;42.178;24.622;2023-01-30T11:39:18;99719.78;;;4.42;78.17
12203;BME280;6164;42.178;24.622;2023-01-30T11:41:55;99724.00;;;4.33;77.70
12203;BME280;6164;42.178;24.622;2023-01-30T11:44:24;99714.88;;;4.28;77.63
12203;BME280;6164;42.178;24.622;2023-01-30T11:46:51;99710.84;;;4.24;76.80
12203;BME280;6164;42.178;24.622;2023-01-30T11:49:18;99678.34;;;4.37;79.42
12203;BME280;6164;42.178;24.622;2023-01-30T11:51:46;99676.31;;;4.41;79.14
12203;BME280;6164;42.178;24.622;2023-01-30T11:54:16;99680.72;;;4.40;78.80
12203;BME280;6164;42.178;24.622;2023-01-30T11:56:45;99674.81;;;4.38;78.04
12203;BME280;6164;42.178;24.622;2023-01-30T11:59:18;99696.84;;;4.25;75.92
12203;BME280;6164;42.178;24.622;2023-01-30T12:01:48;99694.94;;;4.27;76.03
12203;BME280;6164;42.178;24.622;2023-01-30T12:04:15;99687.19;;;4.25;76.01
12203;BME280;6164;42.178;24.622;2023-01-30T12:06:42;99656.28;;;4.30;77.78
12203;BME280;6164;42.178;24.622;2023-01-30T12:11:51;99635.38;;;4.30;78.70
12203;BME280;6164;42.178;24.622;2023-01-30T12:14:20;99619.41;;;4.44;78.65
12203;BME280;6164;42.178;24.622;2023-01-30T12:16:56;99617.63;;;4.45;78.41
12203;BME280;6164;42.178;24.622;2023-01-30T12:19:30;99645.09;;;4.39;75.87
12203;BME280;6164;42.178;24.622;2023-01-30T12:22:00;99636.81;;;4.34;76.64
12203;BME280;6164;42.178;24.622;2023-01-30T12:24:31;99636.41;;;4.39;76.82
12203;BME280;6164;42.178;24.622;2023-01-30T12:27:03;99616.59;;;4.36;78.47
12203;BME280;6164;42.178;24.622;2023-01-30T12:29:32;99613.50;;;4.22;77.87
12203;BME280;6164;42.178;24.622;2023-01-30T12:32:03;99607.31;;;4.23;77.77
12203;BME280;6164;42.178;24.622;2023-01-30T12:34:30;99598.63;;;4.22;77.68
12203;BME280;6164;42.178;24.622;2023-01-30T12:37:00;99619.78;;;4.19;76.50
12203;BME280;6164;42.178;24.622;2023-01-30T12:39:34;99609.97;;;4.12;76.60
12203;BME280;6164;42.178;24.622;2023-01-30T12:42:14;99611.69;;;4.22;77.73
12203;BME280;6164;42.178;24.622;2023-01-30T12:44:47;99600.53;;;4.20;76.90
12203;BME280;6164;42.178;24.622;2023-01-30T12:47:30;99594.50;;;4.20;78.14
12203;BME280;6164;42.178;24.622;2023-01-30T12:50:04;99576.69;;;4.14;79.19
12203;BME280;6164;42.178;24.622;2023-01-30T12:52:41;99566.69;;;4.19;79.40
12203;BME280;6164;42.178;24.622;2023-01-30T12:55:17;99581.00;;;4.15;77.63
12203;BME280;6164;42.178;24.622;2023-01-30T12:57:47;99565.31;;;4.15;78.31
12203;BME280;6164;42.178;24.622;2023-01-30T13:00:22;99544.06;;;4.29;79.71
12203;BME280;6164;42.178;24.622;2023-01-30T13:02:57;99545.03;;;4.28;80.86
12203;BME280;6164;42.178;24.622;2023-01-30T13:05:30;99525.50;;;4.32;81.19
12203;BME280;6164;42.178;24.622;2023-01-30T13:08:05;99547.78;;;4.26;79.77
12203;BME280;6164;42.178;24.622;2023-01-30T13:10:38;99569.13;;;4.11;77.18
12203;BME280;6164;42.178;24.622;2023-01-30T13:13:12;99552.13;;;4.16;78.74
12203;BME280;6164;42.178;24.622;2023-01-30T13:15:43;99557.34;;;4.16;78.30